sensor_id;sensor_type;location;lat;lon;timestamp;pressure;altitude;pressure_sealevel;temperature
67822;BMP180;54434;50.096;20.082;2022-11-20T00:02:05;98553.00;;;-5.56
67822;BMP180;54434;50.096;20.082;2022-11-20T00:04:41;98549.60;;;-5.60
67822;BMP180;54434;50.096;20.082;2022-11-20T00:07:17;98540.80;;;-5.70
67822;BMP180;54434;50.096;20.082;2022-11-20T00:09:53;98544.60;;;-5.70
67822;BMP180;54434;50.096;20.082;2022-11-20T00:12:29;98551.00;;;-5.70
67822;BMP180;54434;50.096;20.082;2022-11-20T00:15:08;98550.20;;;-5.70
67822;BMP180;54434;50.096;20.082;2022-11-20T00:17:45;98543.00;;;-5.70
67822;BMP180;54434;50.096;20.082;2022-11-20T00:20:24;98542.80;;;-5.60
67822;BMP180;54434;50.096;20.082;2022-11-20T00:23:01;98538.60;;;-5.52
67822;BMP180;54434;50.096;20.082;2022-11-20T00:25:38;98538.60;;;-5.50
67822;BMP180;54434;50.096;20.082;2022-11-20T00:28:14;98540.00;;;-5.46
67822;BMP180;54434;50.096;20.082;2022-11-20T00:30:50;98542.40;;;-5.50
67822;BMP180;54434;50.096;20.082;2022-11-20T00:33:26;98540.40;;;-5.40
67822;BMP180;54434;50.096;20.082;2022-11-20T00:36:09;98541.60;;;-5.38
67822;BMP180;54434;50.096;20.082;2022-11-20T00:38:46;98544.00;;;-5.40
67822;BMP180;54434;50.096;20.082;2022-11-20T00:41:23;98545.00;;;-5.30
67822;BMP180;54434;50.096;20.082;2022-11-20T00:43:59;98543.40;;;-5.30
67822;BMP180;54434;50.096;20.082;2022-11-20T00:46:35;98541.60;;;-5.20
67822;BMP180;54434;50.096;20.082;2022-11-20T00:49:11;98541.40;;;-5.20
67822;BMP180;54434;50.096;20.082;2022-11-20T00:51:47;98539.40;;;-5.20
67822;BMP180;54434;50.096;20.082;2022-11-20T00:54:23;98528.40;;;-5.20
67822;BMP180;54434;50.096;20.082;2022-11-20T00:56:59;98531.00;;;-5.10
67822;BMP180;54434;50.096;20.082;2022-11-20T00:59:35;98526.60;;;-5.14
67822;BMP180;54434;50.096;20.082;2022-11-20T01:02:11;98520.20;;;-5.20
67822;BMP180;54434;50.096;20.082;2022-11-20T01:04:47;98520.40;;;-5.10
67822;BMP180;54434;50.096;20.082;2022-11-20T01:07:23;98515.80;;;-5.10
67822;BMP180;54434;50.096;20.082;2022-11-20T01:09:59;98521.00;;;-5.10
67822;BMP180;54434;50.096;20.082;2022-11-20T01:12:35;98515.40;;;-5.10
67822;BMP180;54434;50.096;20.082;2022-11-20T01:15:13;98513.80;;;-5.06
67822;BMP180;54434;50.096;20.082;2022-11-20T01:17:48;98521.60;;;-5.10
67822;BMP180;54434;50.096;20.082;2022-11-20T01:20:24;98518.00;;;-5.20
67822;BMP180;54434;50.096;20.082;2022-11-20T01:23:00;98511.40;;;-5.22
67822;BMP180;54434;50.096;20.082;2022-11-20T01:25:37;98513.40;;;-5.20
67822;BMP180;54434;50.096;20.082;2022-11-20T01:28:13;98506.60;;;-5.20
67822;BMP180;54434;50.096;20.082;2022-11-20T01:30:49;98503.80;;;-5.18
67822;BMP180;54434;50.096;20.082;2022-11-20T01:33:24;98502.60;;;-5.08
67822;BMP180;54434;50.096;20.082;2022-11-20T01:36:10;98501.60;;;-5.00
67822;BMP180;54434;50.096;20.082;2022-11-20T01:38:46;98500.40;;;-5.00
67822;BMP180;54434;50.096;20.082;2022-11-20T01:41:24;98497.60;;;-5.00
67822;BMP180;54434;50.096;20.082;2022-11-20T01:47:17;98510.60;;;-5.00
67822;BMP180;54434;50.096;20.082;2022-11-20T01:50:00;98504.00;;;-5.10
67822;BMP180;54434;50.096;20.082;2022-11-20T01:52:42;98507.20;;;-5.10
67822;BMP180;54434;50.096;20.082;2022-11-20T01:55:27;98504.60;;;-5.10
67822;BMP180;54434;50.096;20.082;2022-11-20T01:58:06;98504.40;;;-5.02
67822;BMP180;54434;50.096;20.082;2022-11-20T02:00:43;98507.60;;;-5.10
67822;BMP180;54434;50.096;20.082;2022-11-20T02:03:22;98510.20;;;-5.00
67822;BMP180;54434;50.096;20.082;2022-11-20T02:06:07;98513.60;;;-5.00
67822;BMP180;54434;50.096;20.082;2022-11-20T02:08:46;98512.00;;;-5.00
67822;BMP180;54434;50.096;20.082;2022-11-20T02:11:22;98508.80;;;-5.00
67822;BMP180;54434;50.096;20.082;2022-11-20T02:13:59;98507.20;;;-5.10
67822;BMP180;54434;50.096;20.082;2022-11-20T02:16:40;98513.20;;;-5.10
67822;BMP180;54434;50.096;20.082;2022-11-20T02:19:28;98511.00;;;-5.10
67822;BMP180;54434;50.096;20.082;2022-11-20T02:22:12;98511.60;;;-5.14
67822;BMP180;54434;50.096;20.082;2022-11-20T02:24:51;98518.80;;;-5.16
67822;BMP180;54434;50.096;20.082;2022-11-20T02:27:28;98515.40;;;-5.20
67822;BMP180;54434;50.096;20.082;2022-11-20T02:30:08;98514.20;;;-5.30
67822;BMP180;54434;50.096;20.082;2022-11-20T02:32:46;98515.60;;;-5.40
67822;BMP180;54434;50.096;20.082;2022-11-20T02:35:46;98514.00;;;-5.34
67822;BMP180;54434;50.096;20.082;2022-11-20T02:38:22;98512.80;;;-5.32
67822;BMP180;54434;50.096;20.082;2022-11-20T02:40:58;98514.40;;;-5.40
67822;BMP180;54434;50.096;20.082;2022-11-20T02:43:34;98513.00;;;-5.44
67822;BMP180;54434;50.096;20.082;2022-11-20T02:46:12;98510.20;;;-5.50
67822;BMP180;54434;50.096;20.082;2022-11-20T02:48:49;98511.40;;;-5.62
67822;BMP180;54434;50.096;20.082;2022-11-20T02:51:25;98508.00;;;-5.70
67822;BMP180;54434;50.096;20.082;2022-11-20T02:54:01;98507.00;;;-5.70
67822;BMP180;54434;50.096;20.082;2022-11-20T02:56:39;98510.60;;;-5.70
67822;BMP180;54434;50.096;20.082;2022-11-20T02:59:14;98511.40;;;-5.68
67822;BMP180;54434;50.096;20.082;2022-11-20T03:01:53;98507.20;;;-5.68
67822;BMP180;54434;50.096;20.082;2022-11-20T03:04:29;98505.60;;;-5.64
67822;BMP180;54434;50.096;20.082;2022-11-20T03:07:05;98509.20;;;-5.68
67822;BMP180;54434;50.096;20.082;2022-11-20T03:09:41;98508.20;;;-5.70
67822;BMP180;54434;50.096;20.082;2022-11-20T03:12:17;98503.80;;;-5.70
67822;BMP180;54434;50.096;20.082;2022-11-20T03:14:53;98501.40;;;-5.70
67822;BMP180;54434;50.096;20.082;2022-11-20T03:17:29;98501.00;;;-5.70
67822;BMP180;54434;50.096;20.082;2022-11-20T03:20:08;98500.60;;;-5.70
67822;BMP180;54434;50.096;20.082;2022-11-20T03:22:44;98495.80;;;-5.74
67822;BMP180;54434;50.096;20.082;2022-11-20T03:25:20;98493.60;;;-5.80
67822;BMP180;54434;50.096;20.082;2022-11-20T03:27:56;98495.80;;;-5.80
67822;BMP180;54434;50.096;20.082;2022-11-20T03:30:32;98498.00;;;-5.80
67822;BMP180;54434;50.096;20.082;2022-11-20T03:33:08;98500.00;;;-5.80
67822;BMP180;54434;50.096;20.082;2022-11-20T03:35:44;98499.00;;;-5.80
67822;BMP180;54434;50.096;20.082;2022-11-20T03:38:21;98494.00;;;-5.80
67822;BMP180;54434;50.096;20.082;2022-11-20T03:41:04;98487.40;;;-5.80
67822;BMP180;54434;50.096;20.082;2022-11-20T03:43:40;98485.80;;;-5.90
67822;BMP180;54434;50.096;20.082;2022-11-20T03:46:17;98486.60;;;-5.90
67822;BMP180;54434;50.096;20.082;2022-11-20T03:48:53;98487.20;;;-5.90
67822;BMP180;54434;50.096;20.082;2022-11-20T03:51:32;98484.60;;;-5.90
67822;BMP180;54434;50.096;20.082;2022-11-20T03:54:10;98487.00;;;-5.90
67822;BMP180;54434;50.096;20.082;2022-11-20T03:56:46;98485.00;;;-5.90
67822;BMP180;54434;50.096;20.082;2022-11-20T03:59:22;98479.40;;;-5.90
67822;BMP180;54434;50.096;20.082;2022-11-20T04:01:58;98478.00;;;-5.90
67822;BMP180;54434;50.096;20.082;2022-11-20T04:04:34;98479.40;;;-6.00
67822;BMP180;54434;50.096;20.082;2022-11-20T04:07:11;98479.60;;;-6.10
67822;BMP180;54434;50.096;20.082;2022-11-20T04:09:46;98476.60;;;-6.10
67822;BMP180;54434;50.096;20.082;2022-11-20T04:12:22;98472.00;;;-6.10
67822;BMP180;54434;50.096;20.082;2022-11-20T04:14:58;98476.00;;;-6.10
67822;BMP180;54434;50.096;20.082;2022-11-20T04:17:35;98476.60;;;-6.18
67822;BMP180;54434;50.096;20.082;2022-11-20T04:20:12;98474.00;;;-6.10
67822;BMP180;54434;50.096;20.082;2022-11-20T04:22:49;98473.60;;;-6.20
67822;BMP180;54434;50.096;20.082;2022-11-20T04:25:25;98470.00;;;-6.18
67822;BMP180;54434;50.096;20.082;2022-11-20T04:28:01;98469.00;;;-6.20
67822;BMP180;54434;50.096;20.082;2022-11-20T04:30:37;98468.00;;;-6.20
67822;BMP180;54434;50.096;20.082;2022-11-20T04:33:12;98466.20;;;-6.20
67822;BMP180;54434;50.096;20.082;2022-11-20T04:35:49;98460.40;;;-6.20
67822;BMP180;54434;50.096;20.082;2022-11-20T04:38:25;98462.00;;;-6.30
67822;BMP180;54434;50.096;20.082;2022-11-20T04:41:04;98463.80;;;-6.40
67822;BMP180;54434;50.096;20.082;2022-11-20T04:43:41;98465.20;;;-6.40
67822;BMP180;54434;50.096;20.082;2022-11-20T04:46:18;98464.60;;;-6.40
67822;BMP180;54434;50.096;20.082;2022-11-20T04:48:54;98466.00;;;-6.40
67822;BMP180;54434;50.096;20.082;2022-11-20T04:51:30;98465.80;;;-6.40
67822;BMP180;54434;50.096;20.082;2022-11-20T04:54:07;98463.00;;;-6.40
67822;BMP180;54434;50.096;20.082;2022-11-20T04:56:43;98453.20;;;-6.36
67822;BMP180;54434;50.096;20.082;2022-11-20T04:59:19;98448.20;;;-6.36
67822;BMP180;54434;50.096;20.082;2022-11-20T05:01:56;98447.60;;;-6.40
67822;BMP180;54434;50.096;20.082;2022-11-20T05:04:33;98452.00;;;-6.40
67822;BMP180;54434;50.096;20.082;2022-11-20T05:07:09;98447.60;;;-6.40
67822;BMP180;54434;50.096;20.082;2022-11-20T05:09:45;98455.00;;;-6.36
67822;BMP180;54434;50.096;20.082;2022-11-20T05:12:21;98447.00;;;-6.40
67822;BMP180;54434;50.096;20.082;2022-11-20T05:14:57;98451.80;;;-6.40
67822;BMP180;54434;50.096;20.082;2022-11-20T05:17:32;98455.60;;;-6.34
67822;BMP180;54434;50.096;20.082;2022-11-20T05:20:12;98450.20;;;-6.30
67822;BMP180;54434;50.096;20.082;2022-11-20T05:22:48;98454.40;;;-6.30
67822;BMP180;54434;50.096;20.082;2022-11-20T05:25:24;98453.80;;;-6.24
67822;BMP180;54434;50.096;20.082;2022-11-20T05:28:00;98457.80;;;-6.20
67822;BMP180;54434;50.096;20.082;2022-11-20T05:30:36;98454.20;;;-6.30
67822;BMP180;54434;50.096;20.082;2022-11-20T05:33:13;98453.60;;;-6.40
67822;BMP180;54434;50.096;20.082;2022-11-20T05:35:49;98448.00;;;-6.40
67822;BMP180;54434;50.096;20.082;2022-11-20T05:38:25;98446.20;;;-6.40
67822;BMP180;54434;50.096;20.082;2022-11-20T05:41:09;98444.20;;;-6.40
67822;BMP180;54434;50.096;20.082;2022-11-20T05:43:47;98439.40;;;-6.30
67822;BMP180;54434;50.096;20.082;2022-11-20T05:46:24;98437.80;;;-6.30
67822;BMP180;54434;50.096;20.082;2022-11-20T05:49:03;98437.80;;;-6.20
67822;BMP180;54434;50.096;20.082;2022-11-20T05:51:39;98435.00;;;-6.20
67822;BMP180;54434;50.096;20.082;2022-11-20T05:54:16;98431.00;;;-6.20
67822;BMP180;54434;50.096;20.082;2022-11-20T05:56:52;98430.40;;;-6.10
67822;BMP180;54434;50.096;20.082;2022-11-20T05:59:28;98432.20;;;-6.10
67822;BMP180;54434;50.096;20.082;2022-11-20T06:02:04;98433.00;;;-6.06
67822;BMP180;54434;50.096;20.082;2022-11-20T06:04:41;98434.20;;;-6.04
67822;BMP180;54434;50.096;20.082;2022-11-20T06:07:17;98434.40;;;-6.10
67822;BMP180;54434;50.096;20.082;2022-11-20T06:09:53;98437.60;;;-6.20
67822;BMP180;54434;50.096;20.082;2022-11-20T06:12:30;98430.60;;;-6.20
67822;BMP180;54434;50.096;20.082;2022-11-20T06:15:09;98434.40;;;-6.30
67822;BMP180;54434;50.096;20.082;2022-11-20T06:17:45;98436.40;;;-6.40
67822;BMP180;54434;50.096;20.082;2022-11-20T06:20:21;98434.20;;;-6.50
67822;BMP180;54434;50.096;20.082;2022-11-20T06:22:57;98430.80;;;-6.50
67822;BMP180;54434;50.096;20.082;2022-11-20T06:25:33;98433.20;;;-6.50
67822;BMP180;54434;50.096;20.082;2022-11-20T06:28:12;98434.20;;;-6.50
67822;BMP180;54434;50.096;20.082;2022-11-20T06:30:50;98433.60;;;-6.50
67822;BMP180;54434;50.096;20.082;2022-11-20T06:33:26;98436.40;;;-6.60
67822;BMP180;54434;50.096;20.082;2022-11-20T06:36:04;98432.40;;;-6.60
67822;BMP180;54434;50.096;20.082;2022-11-20T06:38:44;98432.20;;;-6.60
67822;BMP180;54434;50.096;20.082;2022-11-20T06:41:22;98434.00;;;-6.60
67822;BMP180;54434;50.096;20.082;2022-11-20T06:43:59;98429.80;;;-6.60
67822;BMP180;54434;50.096;20.082;2022-11-20T06:46:36;98427.80;;;-6.60
67822;BMP180;54434;50.096;20.082;2022-11-20T06:49:12;98419.80;;;-6.50
67822;BMP180;54434;50.096;20.082;2022-11-20T06:51:48;98415.40;;;-6.40
67822;BMP180;54434;50.096;20.082;2022-11-20T06:54:24;98423.20;;;-6.30
67822;BMP180;54434;50.096;20.082;2022-11-20T06:56:59;98426.40;;;-6.26
67822;BMP180;54434;50.096;20.082;2022-11-20T06:59:36;98422.20;;;-6.20
67822;BMP180;54434;50.096;20.082;2022-11-20T07:02:14;98420.20;;;-6.10
67822;BMP180;54434;50.096;20.082;2022-11-20T07:04:50;98416.20;;;-6.00
67822;BMP180;54434;50.096;20.082;2022-11-20T07:07:26;98415.80;;;-5.90
67822;BMP180;54434;50.096;20.082;2022-11-20T07:10:03;98421.80;;;-5.84
67822;BMP180;54434;50.096;20.082;2022-11-20T07:12:39;98426.60;;;-5.80
67822;BMP180;54434;50.096;20.082;2022-11-20T07:15:15;98430.40;;;-5.80
67822;BMP180;54434;50.096;20.082;2022-11-20T07:17:51;98431.60;;;-5.70
67822;BMP180;54434;50.096;20.082;2022-11-20T07:20:27;98432.20;;;-5.58
67822;BMP180;54434;50.096;20.082;2022-11-20T07:23:04;98434.20;;;-5.48
67822;BMP180;54434;50.096;20.082;2022-11-20T07:25:40;98431.60;;;-5.36
67822;BMP180;54434;50.096;20.082;2022-11-20T07:28:16;98437.60;;;-5.30
67822;BMP180;54434;50.096;20.082;2022-11-20T07:30:55;98440.80;;;-5.20
67822;BMP180;54434;50.096;20.082;2022-11-20T07:33:31;98435.80;;;-5.14
67822;BMP180;54434;50.096;20.082;2022-11-20T07:36:09;98435.20;;;-5.08
67822;BMP180;54434;50.096;20.082;2022-11-20T07:38:45;98444.00;;;-5.00
67822;BMP180;54434;50.096;20.082;2022-11-20T07:41:21;98452.00;;;-4.90
67822;BMP180;54434;50.096;20.082;2022-11-20T07:43:57;98454.40;;;-4.90
67822;BMP180;54434;50.096;20.082;2022-11-20T07:46:33;98456.00;;;-4.80
67822;BMP180;54434;50.096;20.082;2022-11-20T07:49:08;98460.20;;;-4.70
67822;BMP180;54434;50.096;20.082;2022-11-20T07:51:45;98456.40;;;-4.60
67822;BMP180;54434;50.096;20.082;2022-11-20T07:54:25;98459.00;;;-4.50
67822;BMP180;54434;50.096;20.082;2022-11-20T07:57:01;98458.80;;;-4.50
67822;BMP180;54434;50.096;20.082;2022-11-20T07:59:37;98465.40;;;-4.50
67822;BMP180;54434;50.096;20.082;2022-11-20T08:02:15;98465.80;;;-4.50
67822;BMP180;54434;50.096;20.082;2022-11-20T08:04:51;98467.00;;;-4.50
67822;BMP180;54434;50.096;20.082;2022-11-20T08:07:27;98469.80;;;-4.40
67822;BMP180;54434;50.096;20.082;2022-11-20T08:10:04;98475.60;;;-4.40
67822;BMP180;54434;50.096;20.082;2022-11-20T08:12:47;98471.40;;;-4.38
67822;BMP180;54434;50.096;20.082;2022-11-20T08:15:47;98471.60;;;-4.30
67822;BMP180;54434;50.096;20.082;2022-11-20T08:18:23;98460.20;;;-4.30
67822;BMP180;54434;50.096;20.082;2022-11-20T08:21:10;98459.80;;;-4.20
67822;BMP180;54434;50.096;20.082;2022-11-20T08:23:46;98461.60;;;-4.20
67822;BMP180;54434;50.096;20.082;2022-11-20T08:26:23;98464.20;;;-4.20
67822;BMP180;54434;50.096;20.082;2022-11-20T08:29:00;98462.40;;;-4.20
67822;BMP180;54434;50.096;20.082;2022-11-20T08:31:37;98454.60;;;-4.16
67822;BMP180;54434;50.096;20.082;2022-11-20T08:34:32;98453.40;;;-4.10
67822;BMP180;54434;50.096;20.082;2022-11-20T08:37:11;98448.80;;;-4.10
67822;BMP180;54434;50.096;20.082;2022-11-20T08:39:47;98451.80;;;-4.10
67822;BMP180;54434;50.096;20.082;2022-11-20T08:42:23;98447.80;;;-4.10
67822;BMP180;54434;50.096;20.082;2022-11-20T08:45:00;98448.00;;;-4.06
67822;BMP180;54434;50.096;20.082;2022-11-20T08:47:36;98446.60;;;-4.00
67822;BMP180;54434;50.096;20.082;2022-11-20T08:50:15;98439.20;;;-4.00
67822;BMP180;54434;50.096;20.082;2022-11-20T08:52:51;98440.40;;;-4.04
67822;BMP180;54434;50.096;20.082;2022-11-20T08:55:27;98438.20;;;-4.06
67822;BMP180;54434;50.096;20.082;2022-11-20T08:58:07;98427.80;;;-4.00
67822;BMP180;54434;50.096;20.082;2022-11-20T09:00:43;98425.40;;;-3.92
67822;BMP180;54434;50.096;20.082;2022-11-20T09:03:19;98419.80;;;-3.90
67822;BMP180;54434;50.096;20.082;2022-11-20T09:06:00;98428.00;;;-3.80
67822;BMP180;54434;50.096;20.082;2022-11-20T09:08:36;98426.60;;;-3.70
67822;BMP180;54434;50.096;20.082;2022-11-20T09:11:13;98431.60;;;-3.74
67822;BMP180;54434;50.096;20.082;2022-11-20T09:13:49;98430.20;;;-3.80
67822;BMP180;54434;50.096;20.082;2022-11-20T09:16:25;98426.40;;;-3.70
67822;BMP180;54434;50.096;20.082;2022-11-20T09:19:01;98424.20;;;-3.70
67822;BMP180;54434;50.096;20.082;2022-11-20T09:21:57;98419.40;;;-3.60
67822;BMP180;54434;50.096;20.082;2022-11-20T09:24:34;98410.60;;;-3.54
67822;BMP180;54434;50.096;20.082;2022-11-20T09:27:11;98409.80;;;-3.50
67822;BMP180;54434;50.096;20.082;2022-11-20T09:29:46;98418.00;;;-3.40
67822;BMP180;54434;50.096;20.082;2022-11-20T09:32:23;98417.80;;;-3.30
67822;BMP180;54434;50.096;20.082;2022-11-20T09:34:58;98418.00;;;-3.20
67822;BMP180;54434;50.096;20.082;2022-11-20T09:37:40;98419.20;;;-3.20
67822;BMP180;54434;50.096;20.082;2022-11-20T09:40:24;98416.60;;;-3.10
67822;BMP180;54434;50.096;20.082;2022-11-20T09:43:07;98423.00;;;-3.10
67822;BMP180;54434;50.096;20.082;2022-11-20T09:46:11;98421.40;;;-3.00
67822;BMP180;54434;50.096;20.082;2022-11-20T09:49:22;98425.20;;;-2.90
67822;BMP180;54434;50.096;20.082;2022-11-20T09:52:26;98426.00;;;-2.82
67822;BMP180;54434;50.096;20.082;2022-11-20T09:55:10;98426.80;;;-2.80
67822;BMP180;54434;50.096;20.082;2022-11-20T09:57:52;98424.60;;;-2.70
67822;BMP180;54434;50.096;20.082;2022-11-20T10:00:30;98424.00;;;-2.70
67822;BMP180;54434;50.096;20.082;2022-11-20T10:03:16;98424.40;;;-2.60
67822;BMP180;54434;50.096;20.082;2022-11-20T10:05:56;98423.00;;;-2.50
67822;BMP180;54434;50.096;20.082;2022-11-20T10:08:43;98425.60;;;-2.38
67822;BMP180;54434;50.096;20.082;2022-11-20T10:11:32;98420.00;;;-2.22
67822;BMP180;54434;50.096;20.082;2022-11-20T10:14:26;98418.60;;;-2.18
67822;BMP180;54434;50.096;20.082;2022-11-20T10:17:19;98421.40;;;-2.06
67822;BMP180;54434;50.096;20.082;2022-11-20T10:20:17;98423.60;;;-1.90
67822;BMP180;54434;50.096;20.082;2022-11-20T10:23:21;98423.60;;;-1.76
67822;BMP180;54434;50.096;20.082;2022-11-20T10:26:10;98421.80;;;-1.60
67822;BMP180;54434;50.096;20.082;2022-11-20T10:29:11;98417.60;;;-1.40
67822;BMP180;54434;50.096;20.082;2022-11-20T10:31:54;98421.00;;;-1.24
67822;BMP180;54434;50.096;20.082;2022-11-20T10:34:48;98413.80;;;-1.20
67822;BMP180;54434;50.096;20.082;2022-11-20T10:37:29;98409.00;;;-1.10
67822;BMP180;54434;50.096;20.082;2022-11-20T10:40:22;98404.60;;;-1.08
67822;BMP180;54434;50.096;20.082;2022-11-20T10:43:04;98404.60;;;-1.08
67822;BMP180;54434;50.096;20.082;2022-11-20T10:45:55;98402.60;;;-1.00
67822;BMP180;54434;50.096;20.082;2022-11-20T10:48:34;98397.00;;;-1.00
67822;BMP180;54434;50.096;20.082;2022-11-20T10:51:34;98398.00;;;-0.90
67822;BMP180;54434;50.096;20.082;2022-11-20T10:54:25;98396.60;;;-0.82
67822;BMP180;54434;50.096;20.082;2022-11-20T10:57:18;98388.40;;;-0.80
67822;BMP180;54434;50.096;20.082;2022-11-20T11:00:07;98388.20;;;-0.78
67822;BMP180;54434;50.096;20.082;2022-11-20T11:02:50;98384.80;;;-0.70
67822;BMP180;54434;50.096;20.082;2022-11-20T11:05:37;98381.80;;;-0.62
67822;BMP180;54434;50.096;20.082;2022-11-20T11:08:18;98380.00;;;-0.60
67822;BMP180;54434;50.096;20.082;2022-11-20T11:10:59;98377.80;;;-0.60
67822;BMP180;54434;50.096;20.082;2022-11-20T11:13:36;98370.40;;;-0.50
67822;BMP180;54434;50.096;20.082;2022-11-20T11:16:27;98360.40;;;-0.48
67822;BMP180;54434;50.096;20.082;2022-11-20T11:19:14;98360.00;;;-0.40
67822;BMP180;54434;50.096;20.082;2022-11-20T11:21:56;98351.40;;;-0.30
67822;BMP180;54434;50.096;20.082;2022-11-20T11:24:33;98349.40;;;-0.20
67822;BMP180;54434;50.096;20.082;2022-11-20T11:27:17;98344.80;;;-0.10
67822;BMP180;54434;50.096;20.082;2022-11-20T11:30:13;98345.80;;;-0.10
67822;BMP180;54434;50.096;20.082;2022-11-20T11:32:50;98347.20;;;0.10
67822;BMP180;54434;50.096;20.082;2022-11-20T11:35:30;98351.00;;;0.10
67822;BMP180;54434;50.096;20.082;2022-11-20T11:38:16;98346.60;;;0.10
67822;BMP180;54434;50.096;20.082;2022-11-20T11:40:56;98346.40;;;0.10
67822;BMP180;54434;50.096;20.082;2022-11-20T11:43:36;98344.80;;;0.10
67822;BMP180;54434;50.096;20.082;2022-11-20T11:46:35;98343.80;;;0.18
67822;BMP180;54434;50.096;20.082;2022-11-20T11:49:21;98340.20;;;0.20
67822;BMP180;54434;50.096;20.082;2022-11-20T11:52:12;98333.60;;;0.20
67822;BMP180;54434;50.096;20.082;2022-11-20T11:54:55;98325.00;;;0.12
67822;BMP180;54434;50.096;20.082;2022-11-20T11:57:53;98321.40;;;0.10
67822;BMP180;54434;50.096;20.082;2022-11-20T12:00:31;98315.00;;;0.10
67822;BMP180;54434;50.096;20.082;2022-11-20T12:03:17;98310.60;;;0.10
67822;BMP180;54434;50.096;20.082;2022-11-20T12:06:01;98310.80;;;0.10
67822;BMP180;54434;50.096;20.082;2022-11-20T12:08:49;98312.60;;;0.02
67822;BMP180;54434;50.096;20.082;2022-11-20T12:11:37;98312.80;;;0.00
67822;BMP180;54434;50.096;20.082;2022-11-20T12:14:20;98312.80;;;0.00
67822;BMP180;54434;50.096;20.082;2022-11-20T12:16:59;98319.00;;;0.00
67822;BMP180;54434;50.096;20.082;2022-11-20T12:19:37;98316.00;;;0.00
67822;BMP180;54434;50.096;20.082;2022-11-20T12:22:30;98313.00;;;0.00
67822;BMP180;54434;50.096;20.082;2022-11-20T12:25:16;98309.40;;;0.08
67822;BMP180;54434;50.096;20.082;2022-11-20T12:28:41;98309.20;;;0.10
67822;BMP180;54434;50.096;20.082;2022-11-20T12:34:51;98314.80;;;0.20
67822;BMP180;54434;50.096;20.082;2022-11-20T12:37:48;98319.00;;;0.20
67822;BMP180;54434;50.096;20.082;2022-11-20T12:40:43;98321.00;;;0.20
67822;BMP180;54434;50.096;20.082;2022-11-20T12:43:26;98319.20;;;0.30
67822;BMP180;54434;50.096;20.082;2022-11-20T12:46:36;98322.40;;;0.30
67822;BMP180;54434;50.096;20.082;2022-11-20T12:49:38;98321.80;;;0.30
67822;BMP180;54434;50.096;20.082;2022-11-20T12:52:28;98316.00;;;0.32
67822;BMP180;54434;50.096;20.082;2022-11-20T12:55:28;98314.40;;;0.40
67822;BMP180;54434;50.096;20.082;2022-11-20T12:58:20;98304.20;;;0.32
67822;BMP180;54434;50.096;20.082;2022-11-20T13:01:11;98305.80;;;0.30
67822;BMP180;54434;50.096;20.082;2022-11-20T13:04:34;98298.60;;;0.22
67822;BMP180;54434;50.096;20.082;2022-11-20T13:07:18;98298.20;;;0.20
67822;BMP180;54434;50.096;20.082;2022-11-20T13:09:56;98297.80;;;0.20
67822;BMP180;54434;50.096;20.082;2022-11-20T13:12:40;98293.20;;;0.20
67822;BMP180;54434;50.096;20.082;2022-11-20T13:15:50;98291.00;;;0.12
67822;BMP180;54434;50.096;20.082;2022-11-20T13:18:34;98280.80;;;0.10
67822;BMP180;54434;50.096;20.082;2022-11-20T13:21:22;98277.20;;;0.10
67822;BMP180;54434;50.096;20.082;2022-11-20T13:24:20;98272.00;;;0.10
67822;BMP180;54434;50.096;20.082;2022-11-20T13:27:23;98269.40;;;0.10
67822;BMP180;54434;50.096;20.082;2022-11-20T13:30:18;98266.80;;;0.10
67822;BMP180;54434;50.096;20.082;2022-11-20T13:33:04;98262.20;;;0.14
67822;BMP180;54434;50.096;20.082;2022-11-20T13:35:54;98266.80;;;0.10
67822;BMP180;54434;50.096;20.082;2022-11-20T13:38:42;98257.80;;;0.10
67822;BMP180;54434;50.096;20.082;2022-11-20T13:41:31;98253.60;;;0.20
67822;BMP180;54434;50.096;20.082;2022-11-20T13:44:24;98244.80;;;0.20
67822;BMP180;54434;50.096;20.082;2022-11-20T13:47:01;98241.80;;;0.20
67822;BMP180;54434;50.096;20.082;2022-11-20T13:49:41;98238.80;;;0.20
67822;BMP180;54434;50.096;20.082;2022-11-20T13:52:55;98233.80;;;0.10
67822;BMP180;54434;50.096;20.082;2022-11-20T13:55:42;98238.00;;;0.10
67822;BMP180;54434;50.096;20.082;2022-11-20T13:58:40;98237.80;;;0.10
67822;BMP180;54434;50.096;20.082;2022-11-20T14:01:24;98236.80;;;0.00
67822;BMP180;54434;50.096;20.082;2022-11-20T14:04:07;98239.20;;;0.00
67822;BMP180;54434;50.096;20.082;2022-11-20T14:06:47;98241.40;;;-0.10
67822;BMP180;54434;50.096;20.082;2022-11-20T14:09:33;98240.40;;;-0.14
67822;BMP180;54434;50.096;20.082;2022-11-20T14:12:22;98240.20;;;-0.20
67822;BMP180;54434;50.096;20.082;2022-11-20T14:14:59;98243.20;;;-0.30
67822;BMP180;54434;50.096;20.082;2022-11-20T14:17:37;98236.00;;;-0.40
67822;BMP180;54434;50.096;20.082;2022-11-20T14:20:18;98245.20;;;-0.40
67822;BMP180;54434;50.096;20.082;2022-11-20T14:22:59;98244.40;;;-0.36
67822;BMP180;54434;50.096;20.082;2022-11-20T14:25:37;98242.60;;;-0.38
67822;BMP180;54434;50.096;20.082;2022-11-20T14:28:28;98240.80;;;-0.40
67822;BMP180;54434;50.096;20.082;2022-11-20T14:31:08;98234.80;;;-0.30
67822;BMP180;54434;50.096;20.082;2022-11-20T14:33:53;98227.80;;;-0.20
67822;BMP180;54434;50.096;20.082;2022-11-20T14:36:30;98233.20;;;-0.20
67822;BMP180;54434;50.096;20.082;2022-11-20T14:39:07;98222.20;;;-0.30
67822;BMP180;54434;50.096;20.082;2022-11-20T14:41:58;98226.20;;;-0.30
67822;BMP180;54434;50.096;20.082;2022-11-20T14:44:36;98227.80;;;-0.40
67822;BMP180;54434;50.096;20.082;2022-11-20T14:47:17;98232.00;;;-0.50
67822;BMP180;54434;50.096;20.082;2022-11-20T14:49:56;98228.60;;;-0.66
67822;BMP180;54434;50.096;20.082;2022-11-20T14:52:33;98228.20;;;-0.80
67822;BMP180;54434;50.096;20.082;2022-11-20T14:55:24;98222.80;;;-0.90
67822;BMP180;54434;50.096;20.082;2022-11-20T14:58:03;98215.40;;;-1.10
67822;BMP180;54434;50.096;20.082;2022-11-20T15:00:39;98222.40;;;-1.20
67822;BMP180;54434;50.096;20.082;2022-11-20T15:03:20;98218.40;;;-1.30
67822;BMP180;54434;50.096;20.082;2022-11-20T15:06:03;98213.20;;;-1.50
67822;BMP180;54434;50.096;20.082;2022-11-20T15:08:40;98210.20;;;-1.54
67822;BMP180;54434;50.096;20.082;2022-11-20T15:11:33;98205.40;;;-1.60
67822;BMP180;54434;50.096;20.082;2022-11-20T15:14:12;98204.20;;;-1.70
67822;BMP180;54434;50.096;20.082;2022-11-20T15:16:48;98202.60;;;-1.72
67822;BMP180;54434;50.096;20.082;2022-11-20T15:19:26;98196.80;;;-1.80
67822;BMP180;54434;50.096;20.082;2022-11-20T15:22:03;98204.20;;;-1.90
67822;BMP180;54434;50.096;20.082;2022-11-20T15:24:40;98204.40;;;-2.00